Time;durP1;ratioP1;P1;durP2;ratioP2;P2;SDS_P1;SDS_P2;PMS_P1;PMS_P2;Temp;Humidity;BMP_temperature;BMP_pressure;BME280_temperature;BME280_humidity;BME280_pressure;Samples;Min_cycle;Max_cycle;Signal;HPM_P1;HPM_P2
2023/07/06 00:01:02;;;;;;;12.17;2.43;;;15.70;99.90;;;;;;7284925;19;20193;-78
2023/07/06 00:03:31;;;;;;;10.23;2.30;;;15.70;99.90;;;;;;7286061;19;20219;-78
2023/07/06 00:05:57;;;;;;;12.53;2.30;;;15.70;99.90;;;;;;7286779;19;20190;-78
2023/07/06 00:08:23;;;;;;;12.23;2.20;;;15.60;99.90;;;;;;7286470;19;20535;-77
2023/07/06 00:10:50;;;;;;;10.63;2.47;;;15.70;99.90;;;;;;7286118;19;20187;-77
2023/07/06 00:13:16;;;;;;;10.10;2.10;;;15.60;99.90;;;;;;7286375;19;20257;-77
2023/07/06 00:15:42;;;;;;;6.33;2.50;;;15.60;99.90;;;;;;7298331;19;20180;-77
2023/07/06 00:18:09;;;;;;;7.90;2.57;;;15.60;99.90;;;;;;7306734;19;20281;-78
2023/07/06 00:20:37;;;;;;;9.07;2.23;;;15.60;99.90;;;;;;7285773;19;20192;-78
2023/07/06 00:23:10;;;;;;;8.03;2.20;;;15.50;99.90;;;;;;7285623;19;20200;-78
2023/07/06 00:25:41;;;;;;;11.73;2.23;;;15.60;99.90;;;;;;7285834;19;20188;-78
2023/07/06 00:28:09;;;;;;;11.83;2.40;;;15.60;99.90;;;;;;7285817;19;20196;-77
2023/07/06 00:30:54;;;;;;;12.17;2.33;;;15.50;99.90;;;;;;7285734;19;20187;-77
2023/07/06 00:33:23;;;;;;;10.23;2.50;;;15.50;99.90;;;;;;7183570;19;2006498;-78
2023/07/06 00:35:49;;;;;;;9.07;2.47;;;15.50;99.90;;;;;;7283947;19;20183;-78
2023/07/06 00:38:21;;;;;;;8.80;2.47;;;15.50;99.90;;;;;;7283553;19;20759;-77
2023/07/06 00:40:53;;;;;;;9.73;2.23;;;15.50;99.90;;;;;;7284986;19;20186;-77
2023/07/06 00:43:21;;;;;;;11.43;2.40;;;15.50;99.90;;;;;;7286020;19;20183;-78
2023/07/06 00:45:52;;;;;;;12.17;2.60;;;15.40;99.90;;;;;;7284488;19;20294;-78
2023/07/06 00:48:26;;;;;;;13.30;2.30;;;15.40;99.90;;;;;;7284962;19;20194;-77
2023/07/06 00:50:59;;;;;;;12.93;2.63;;;15.30;99.90;;;;;;7285610;19;20190;-78
2023/07/06 00:53:32;;;;;;;13.10;2.80;;;15.30;99.90;;;;;;7285845;19;20192;-78
2023/07/06 00:55:58;;;;;;;9.87;2.43;;;15.30;99.90;;;;;;7285132;19;20193;-78
2023/07/06 00:58:42;;;;;;;8.93;2.30;;;15.40;99.90;;;;;;7284308;19;20184;-77
2023/07/06 01:01:10;;;;;;;8.57;2.43;;;15.30;99.90;;;;;;7284807;19;20188;-77
2023/07/06 01:03:43;;;;;;;9.87;2.47;;;15.30;99.90;;;;;;7284482;19;20193;-76
2023/07/06 01:06:19;;;;;;;12.10;2.40;;;15.30;99.90;;;;;;7284133;19;20911;-77
2023/07/06 01:08:50;;;;;;;10.50;2.37;;;15.20;99.90;;;;;;7263646;19;20646;-77
2023/07/06 01:11:16;;;;;;;7.27;2.10;;;15.20;99.90;;;;;;7283592;19;20184;-78
2023/07/06 01:13:50;;;;;;;13.00;2.27;;;15.30;99.90;;;;;;7293935;19;20184;-78
2023/07/06 01:16:32;;;;;;;11.97;2.47;;;15.20;99.90;;;;;;7283482;19;20643;-78
2023/07/06 01:19:21;;;;;;;13.07;2.80;;;15.20;99.90;;;;;;7285139;19;20946;-76
2023/07/06 01:22:24;;;;;;;11.13;2.83;;;15.20;99.90;;;;;;7180409;19;2004645;-77
2023/07/06 01:24:59;;;;;;;11.90;2.37;;;15.20;99.90;;;;;;7181593;19;2004598;-77
2023/07/06 01:28:04;;;;;;;10.47;2.73;;;15.20;99.90;;;;;;7283595;19;20193;-77
2023/07/06 01:30:57;;;;;;;12.90;3.10;;;15.10;99.90;;;;;;7179764;19;2004400;-78
2023/07/06 01:33:47;;;;;;;12.13;2.50;;;15.00;99.90;;;;;;7181587;19;2006546;-78
2023/07/06 01:36:34;;;;;;;12.83;2.70;;;14.90;99.90;;;;;;7268429;19;20191;-77
2023/07/06 01:39:20;;;;;;;9.90;2.70;;;14.90;99.90;;;;;;7283670;19;20190;-78
2023/07/06 01:42:06;;;;;;;10.73;2.90;;;14.90;99.90;;;;;;7261460;19;20213;-77
2023/07/06 01:44:32;;;;;;;10.83;2.67;;;15.00;99.90;;;;;;7282606;19;20204;-77
2023/07/06 01:46:58;;;;;;;11.40;2.40;;;14.90;99.90;;;;;;7282343;19;20191;-77
2023/07/06 01:49:25;;;;;;;13.63;3.00;;;14.90;99.90;;;;;;7282559;19;20194;-78
2023/07/06 01:52:03;;;;;;;11.20;2.50;;;14.90;99.90;;;;;;7280780;19;20630;-77
2023/07/06 01:54:39;;;;;;;10.40;2.70;;;14.90;99.90;;;;;;7280318;19;20200;-77
2023/07/06 01:57:14;;;;;;;15.30;2.57;;;14.80;99.90;;;;;;7284724;19;20654;-76
2023/07/06 01:59:46;;;;;;;8.53;2.33;;;14.80;99.90;;;;;;7281114;19;20412;-78
2023/07/06 02:02:13;;;;;;;12.20;2.57;;;14.90;99.90;;;;;;7276955;19;20221;-78
2023/07/06 02:04:43;;;;;;;8.47;2.40;;;14.80;99.90;;;;;;7303469;19;20191;-78
2023/07/06 02:07:12;;;;;;;10.27;2.50;;;14.80;99.90;;;;;;7283235;19;20302;-78
2023/07/06 02:09:46;;;;;;;10.27;2.43;;;14.80;99.90;;;;;;7282194;19;20215;-78
2023/07/06 02:12:15;;;;;;;16.93;2.83;;;14.80;99.90;;;;;;7275241;19;20189;-77
2023/07/06 02:14:42;;;;;;;12.23;2.77;;;14.80;99.90;;;;;;7302764;19;20188;-76
2023/07/06 02:17:09;;;;;;;10.50;2.43;;;14.80;99.90;;;;;;7282247;19;20267;-78
2023/07/06 02:19:36;;;;;;;8.80;2.70;;;14.80;99.90;;;;;;7280785;19;20217;-78
2023/07/06 02:22:05;;;;;;;11.07;2.87;;;14.80;99.90;;;;;;7282402;19;20720;-78
2023/07/06 02:24:32;;;;;;;11.10;2.60;;;14.70;99.90;;;;;;7282568;19;20650;-78
2023/07/06 02:26:57;;;;;;;10.57;2.87;;;14.70;99.90;;;;;;7282662;19;20195;-78
2023/07/06 02:29:23;;;;;;;10.63;2.67;;;14.60;99.90;;;;;;7280974;19;20196;-78
2023/07/06 02:31:50;;;;;;;10.03;2.50;;;14.60;99.90;;;;;;7281391;19;20273;-78
2023/07/06 02:34:24;;;;;;;8.37;2.50;;;14.70;99.90;;;;;;7283008;19;20227;-78
2023/07/06 02:36:54;;;;;;;12.00;2.70;;;14.70;99.90;;;;;;7281785;19;20185;-78
2023/07/06 02:39:24;;;;;;;10.30;2.73;;;14.70;99.90;;;;;;7284144;19;20217;-78
2023/07/06 02:41:53;;;;;;;11.83;3.00;;;14.70;99.90;;;;;;7281647;19;20262;-78
2023/07/06 02:44:22;;;;;;;17.00;3.00;;;14.70;99.90;;;;;;7282899;19;20204;-77
2023/07/06 02:46:48;;;;;;;14.63;3.00;;;14.70;99.90;;;;;;7280492;19;20216;-77
2023/07/06 02:49:14;;;;;;;12.07;2.90;;;14.60;99.90;;;;;;7281855;19;20200;-77
2023/07/06 02:51:40;;;;;;;13.93;3.03;;;14.60;99.90;;;;;;7303073;19;20190;-78
2023/07/06 02:54:07;;;;;;;15.43;3.03;;;14.50;99.90;;;;;;7280591;19;20193;-77
2023/07/06 02:56:33;;;;;;;9.80;2.60;;;14.50;99.90;;;;;;7279772;19;20188;-76
2023/07/06 02:58:59;;;;;;;10.77;2.90;;;14.50;99.90;;;;;;7281676;19;20188;-78
2023/07/06 03:01:24;;;;;;;11.93;3.00;;;14.40;99.90;;;;;;7279154;19;20257;-77
2023/07/06 03:03:51;;;;;;;12.90;2.97;;;14.40;99.90;;;;;;7282146;19;20645;-78
2023/07/06 03:06:18;;;;;;;12.63;3.13;;;14.30;99.90;;;;;;7279651;19;20185;-77
2023/07/06 03:08:45;;;;;;;13.50;3.20;;;14.30;99.90;;;;;;7280363;19;20654;-77
2023/07/06 03:11:11;;;;;;;11.33;2.93;;;14.40;99.90;;;;;;7301587;19;21063;-77
2023/07/06 03:13:37;;;;;;;11.93;3.37;;;14.40;99.90;;;;;;7281310;19;20191;-77
2023/07/06 03:16:04;;;;;;;13.47;3.40;;;14.40;99.90;;;;;;7279596;19;20174;-76
2023/07/06 03:18:30;;;;;;;11.87;3.10;;;14.40;99.90;;;;;;7280062;19;20232;-78
2023/07/06 03:20:56;;;;;;;14.33;2.90;;;14.50;99.90;;;;;;7281754;19;20185;-78
2023/07/06 03:23:23;;;;;;;13.23;3.77;;;14.40;99.90;;;;;;7280908;19;20655;-78
2023/07/06 03:25:52;;;;;;;13.13;3.40;;;14.30;99.90;;;;;;7280064;19;20188;-78
2023/07/06 03:28:19;;;;;;;13.00;3.70;;;14.30;99.90;;;;;;7280967;19;20210;-78
2023/07/06 03:30:44;;;;;;;11.97;3.20;;;14.30;99.90;;;;;;7278781;19;20186;-77
2023/07/06 03:33:11;;;;;;;11.67;2.53;;;14.30;99.90;;;;;;7301630;19;20190;-77
2023/07/06 03:35:41;;;;;;;15.33;3.57;;;14.20;99.90;;;;;;7279335;19;20654;-77
2023/07/06 03:38:07;;;;;;;13.53;3.40;;;14.20;99.90;;;;;;7282392;19;20187;-77
2023/07/06 03:40:33;;;;;;;12.87;3.27;;;14.20;99.90;;;;;;7280009;19;20664;-78
2023/07/06 03:42:58;;;;;;;13.33;3.10;;;14.20;99.90;;;;;;7279517;19;20201;-76
2023/07/06 03:45:24;;;;;;;14.53;3.10;;;14.20;99.90;;;;;;7281159;19;20189;-77
2023/07/06 03:47:50;;;;;;;18.17;3.30;;;14.20;99.90;;;;;;7278156;19;20205;-77
2023/07/06 03:50:20;;;;;;;13.80;3.43;;;14.20;99.90;;;;;;7280322;19;20285;-77
2023/07/06 03:52:46;;;;;;;11.60;3.37;;;14.30;99.90;;;;;;7280368;19;20622;-77
2023/07/06 03:55:26;;;;;;;15.90;3.43;;;14.30;99.90;;;;;;7294045;19;20200;-78
2023/07/06 03:57:52;;;;;;;15.87;3.57;;;14.30;99.90;;;;;;7278925;19;20196;-77
2023/07/06 04:00:23;;;;;;;12.13;3.23;;;14.20;99.90;;;;;;7280841;19;20193;-77
2023/07/06 04:02:52;;;;;;;12.57;3.20;;;14.20;99.90;;;;;;7278935;19;20883;-78
2023/07/06 04:05:22;;;;;;;14.70;3.37;;;14.20;99.90;;;;;;7279673;19;20270;-78
2023/07/06 04:07:52;;;;;;;13.43;3.80;;;14.20;99.90;;;;;;7278736;19;20186;-77
2023/07/06 04:10:22;;;;;;;17.20;3.27;;;14.30;99.90;;;;;;7278800;19;20299;-77
2023/07/06 04:12:48;;;;;;;13.43;3.20;;;14.30;99.90;;;;;;7279561;19;20185;-77
2023/07/06 04:15:19;;;;;;;12.13;3.00;;;14.30;99.90;;;;;;7284338;19;20589;-78
2023/07/06 04:17:47;;;;;;;14.97;3.57;;;14.40;99.90;;;;;;7283732;19;20191;-77
2023/07/06 04:20:24;;;;;;;14.63;3.50;;;14.40;99.90;;;;;;7293004;19;20193;-77
2023/07/06 04:22:55;;;;;;;13.33;3.10;;;14.40;99.90;;;;;;7284272;19;20216;-76
2023/07/06 04:25:31;;;;;;;9.37;2.93;;;14.50;99.90;;;;;;7286392;19;20270;-77
2023/07/06 04:28:10;;;;;;;11.87;3.03;;;14.60;99.90;;;;;;7284045;19;20189;-78
2023/07/06 04:30:41;;;;;;;10.67;3.20;;;14.50;99.90;;;;;;7282604;19;20193;-77
2023/07/06 04:33:10;;;;;;;13.40;2.83;;;14.70;99.90;;;;;;7286811;19;20206;-77
2023/07/06 04:35:36;;;;;;;13.60;3.03;;;14.90;99.90;;;;;;7285604;19;20206;-77
2023/07/06 04:38:03;;;;;;;11.87;2.97;;;15.20;99.90;;;;;;7286843;19;20199;-77
2023/07/06 04:40:29;;;;;;;14.00;2.63;;;15.50;99.90;;;;;;7285457;19;20180;-77
2023/07/06 04:42:55;;;;;;;9.97;2.97;;;16.10;99.90;;;;;;7285667;19;20198;-77
2023/07/06 04:45:24;;;;;;;9.63;2.73;;;16.80;99.90;;;;;;7286175;19;20180;-77
2023/07/06 04:47:53;;;;;;;13.17;3.10;;;17.60;99.90;;;;;;7286569;19;20544;-77
2023/07/06 04:50:23;;;;;;;12.63;2.60;;;18.50;99.90;;;;;;7286568;19;20181;-78
2023/07/06 04:52:53;;;;;;;9.20;2.67;;;18.60;99.90;;;;;;7285569;19;20202;-77
2023/07/06 04:55:23;;;;;;;12.40;2.57;;;19.20;99.90;;;;;;7285640;19;20706;-77
2023/07/06 04:57:54;;;;;;;12.57;2.57;;;19.00;99.90;;;;;;7285352;19;20188;-77
2023/07/06 05:00:24;;;;;;;11.43;2.70;;;18.90;99.90;;;;;;7285264;19;20189;-76
2023/07/06 05:02:55;;;;;;;11.90;2.60;;;18.70;99.90;;;;;;7285098;19;20215;-77
2023/07/06 05:05:22;;;;;;;9.13;2.80;;;18.60;99.90;;;;;;7285397;19;20628;-76
2023/07/06 05:07:48;;;;;;;13.70;2.43;;;18.80;99.90;;;;;;7284007;19;20189;-77
2023/07/06 05:10:15;;;;;;;10.30;2.43;;;18.70;99.90;;;;;;7285194;19;20197;-77
2023/07/06 05:12:44;;;;;;;12.50;2.53;;;18.90;99.90;;;;;;7307699;19;20195;-78
2023/07/06 05:15:10;;;;;;;8.43;2.40;;;19.60;99.90;;;;;;7287138;19;20666;-78
2023/07/06 05:17:38;;;;;;;14.47;2.47;;;20.80;99.90;;;;;;7285565;19;20181;-78
2023/07/06 05:20:06;;;;;;;14.37;2.93;;;21.70;99.90;;;;;;7284598;19;20194;-78
2023/07/06 05:22:38;;;;;;;11.10;2.37;;;22.70;99.90;;;;;;7284893;19;20630;-78
2023/07/06 05:25:04;;;;;;;10.23;2.10;;;23.20;99.90;;;;;;7282767;19;20184;-78
2023/07/06 05:27:31;;;;;;;8.53;2.23;;;24.40;99.90;;;;;;7284994;19;20204;-78
2023/07/06 05:29:57;;;;;;;9.57;2.47;;;24.80;99.90;;;;;;7284599;19;20255;-79
2023/07/06 05:32:22;;;;;;;7.83;2.27;;;25.00;99.90;;;;;;7284419;19;20260;-78
2023/07/06 05:34:48;;;;;;;8.50;2.30;;;25.60;99.90;;;;;;7283664;19;20200;-77
2023/07/06 05:37:14;;;;;;;11.00;2.40;;;26.20;99.90;;;;;;7290153;19;20192;-78
2023/07/06 05:39:39;;;;;;;9.60;3.13;;;26.60;99.90;;;;;;7305265;19;20210;-77
2023/07/06 05:42:06;;;;;;;14.53;2.63;;;26.80;99.90;;;;;;7284320;19;20648;-77
2023/07/06 05:44:31;;;;;;;10.47;2.40;;;26.40;99.90;;;;;;7281834;19;20233;-77
2023/07/06 05:46:57;;;;;;;10.70;2.30;;;26.60;99.90;;;;;;7284132;19;20189;-77
2023/07/06 05:49:23;;;;;;;13.03;2.50;;;26.90;99.90;;;;;;7282680;19;20736;-77
2023/07/06 05:51:49;;;;;;;14.47;3.33;;;26.70;99.90;;;;;;7279434;19;20193;-77
2023/07/06 05:54:14;;;;;;;8.90;2.30;;;25.60;99.90;;;;;;7284553;19;20541;-78
2023/07/06 05:56:41;;;;;;;12.53;2.73;;;25.60;99.90;;;;;;7303342;19;20251;-78
2023/07/06 05:59:08;;;;;;;12.10;2.77;;;25.90;99.90;;;;;;7282799;19;20188;-77
2023/07/06 06:01:35;;;;;;;14.10;3.23;;;25.90;99.90;;;;;;7280775;19;20185;-78
2023/07/06 06:04:03;;;;;;;11.63;2.60;;;26.20;99.90;;;;;;7280687;19;20193;-78
2023/07/06 06:06:49;;;;;;;10.27;2.60;;;25.60;99.90;;;;;;7281819;19;20201;-77
2023/07/06 06:09:15;;;;;;;12.40;2.37;;;26.40;99.90;;;;;;7260457;19;20192;-76
2023/07/06 06:11:41;;;;;;;9.57;2.40;;;26.60;99.90;;;;;;7302798;19;20185;-76
2023/07/06 06:14:07;;;;;;;10.80;2.55;;;27.50;99.90;;;;;;7280681;19;20572;-77
2023/07/06 06:16:33;;;;;;;11.52;2.70;;;27.70;99.90;;;;;;7282536;19;20208;-77
2023/07/06 06:19:01;;;;;;;15.07;2.73;;;27.60;99.90;;;;;;7282902;19;20693;-77
2023/07/06 06:21:29;;;;;;;9.10;2.33;;;27.40;99.90;;;;;;7281760;19;20189;-76
2023/07/06 06:23:57;;;;;;;8.88;2.35;;;27.40;99.90;;;;;;7282819;19;20215;-77
2023/07/06 06:26:23;;;;;;;13.88;3.22;;;28.10;99.90;;;;;;7283255;19;20201;-77
2023/07/06 06:28:49;;;;;;;11.85;2.95;;;27.70;99.90;;;;;;7282164;19;20193;-77
2023/07/06 06:31:15;;;;;;;12.10;2.53;;;27.50;99.90;;;;;;7281957;19;20284;-77
2023/07/06 06:33:41;;;;;;;12.73;2.65;;;28.00;99.90;;;;;;7304021;19;20188;-77
2023/07/06 06:36:08;;;;;;;11.27;2.70;;;28.20;99.90;;;;;;7280462;19;20197;-78
2023/07/06 06:38:34;;;;;;;11.90;2.92;;;28.60;99.90;;;;;;7282354;19;20197;-77
2023/07/06 06:41:07;;;;;;;13.48;2.40;;;28.30;99.90;;;;;;7281264;19;20197;-76
2023/07/06 06:43:37;;;;;;;12.60;2.70;;;28.90;99.90;;;;;;7279303;19;20269;-76
2023/07/06 06:46:03;;;;;;;12.90;2.60;;;28.80;99.90;;;;;;7278481;19;20699;-76
2023/07/06 06:48:29;;;;;;;12.82;2.58;;;28.20;99.90;;;;;;7277128;19;20200;-76
2023/07/06 06:50:56;;;;;;;11.75;3.05;;;28.30;99.90;;;;;;7276964;19;20635;-76
2023/07/06 06:53:22;;;;;;;15.55;3.30;;;28.40;99.90;;;;;;7278729;19;20189;-76
2023/07/06 06:55:48;;;;;;;13.13;2.60;;;28.10;99.90;;;;;;7278464;19;20601;-76
2023/07/06 06:58:15;;;;;;;12.43;2.95;;;27.60;99.90;;;;;;7291015;19;20193;-76
2023/07/06 07:00:41;;;;;;;13.43;3.60;;;27.80;99.90;;;;;;7301272;19;20715;-76
2023/07/06 07:03:11;;;;;;;11.85;2.58;;;28.20;99.90;;;;;;7277664;19;20581;-76
2023/07/06 07:05:37;;;;;;;9.48;2.22;;;28.90;99.90;;;;;;7277652;19;20200;-77
2023/07/06 07:08:03;;;;;;;9.35;2.70;;;29.80;99.90;;;;;;7279698;19;20326;-76
2023/07/06 07:10:29;;;;;;;11.25;3.10;;;29.20;99.90;;;;;;7278869;19;20196;-77
2023/07/06 07:12:55;;;;;;;9.63;2.45;;;29.50;99.90;;;;;;7280080;19;20199;-76
2023/07/06 07:15:21;;;;;;;9.55;2.55;;;29.70;99.90;;;;;;7278021;19;20185;-77
2023/07/06 07:17:47;;;;;;;10.60;2.75;;;29.10;99.90;;;;;;7279277;19;20216;-76
2023/07/06 07:20:14;;;;;;;15.60;2.47;;;29.00;99.90;;;;;;7300386;19;20279;-76
2023/07/06 07:22:40;;;;;;;9.55;2.45;;;29.10;99.90;;;;;;7294707;19;20751;-76
2023/07/06 07:25:07;;;;;;;9.65;2.53;;;28.90;99.90;;;;;;7277519;19;20188;-76
2023/07/06 07:27:35;;;;;;;9.85;2.47;;;29.70;99.90;;;;;;7275285;19;20197;-76
2023/07/06 07:30:04;;;;;;;9.30;2.33;;;30.90;99.90;;;;;;7278355;19;20730;-76
2023/07/06 07:32:30;;;;;;;14.10;2.72;;;31.70;98.10;;;;;;7277134;19;20188;-75
2023/07/06 07:34:57;;;;;;;9.55;2.53;;;31.00;98.10;;;;;;7279037;19;20215;-76
2023/07/06 07:37:23;;;;;;;10.70;2.45;;;31.30;97.80;;;;;;7277140;19;20550;-76
2023/07/06 07:39:48;;;;;;;8.55;2.75;;;31.30;96.70;;;;;;7277525;19;20325;-75
2023/07/06 07:42:16;;;;;;;12.25;2.78;;;31.20;96.30;;;;;;7285689;19;20193;-74
2023/07/06 07:44:44;;;;;;;10.38;2.53;;;30.20;97.70;;;;;;7298114;19;20184;-75
2023/07/06 07:47:11;;;;;;;10.25;2.55;;;30.80;97.30;;;;;;7278032;19;20216;-74
2023/07/06 07:49:37;;;;;;;11.15;3.00;;;31.30;96.10;;;;;;7282755;19;20690;-75
2023/07/06 07:52:04;;;;;;;13.43;2.85;;;31.60;95.00;;;;;;7282828;19;20186;-75
2023/07/06 07:54:30;;;;;;;12.63;2.70;;;31.20;95.80;;;;;;7284183;19;20180;-76
2023/07/06 07:56:57;;;;;;;10.70;2.80;;;31.50;96.90;;;;;;7285713;19;20192;-75
2023/07/06 07:59:25;;;;;;;9.30;2.42;;;32.40;93.60;;;;;;7284823;19;20211;-75
2023/07/06 08:01:52;;;;;;;12.52;3.10;;;33.70;91.90;;;;;;7286068;19;20193;-74
2023/07/06 08:04:18;;;;;;;10.15;2.80;;;34.00;90.20;;;;;;7289638;19;20288;-75
2023/07/06 08:06:44;;;;;;;10.77;2.88;;;32.30;90.80;;;;;;7311628;19;20189;-76
2023/07/06 08:09:09;;;;;;;13.48;2.80;;;31.10;92.70;;;;;;7304893;19;20208;-76
2023/07/06 08:11:41;;;;;;;10.02;2.70;;;31.90;92.60;;;;;;7292261;19;20196;-76
2023/07/06 08:14:10;;;;;;;10.75;2.70;;;32.00;91.60;;;;;;7287410;19;20192;-76
2023/07/06 08:16:36;;;;;;;11.07;2.70;;;31.40;91.40;;;;;;7287851;19;20554;-76
2023/07/06 08:19:05;;;;;;;9.70;2.35;;;31.80;91.40;;;;;;7288224;19;20655;-76
2023/07/06 08:21:31;;;;;;;12.43;2.90;;;32.20;91.60;;;;;;7289689;19;20207;-75
2023/07/06 08:23:57;;;;;;;10.38;2.53;;;31.40;90.80;;;;;;7288616;19;20265;-76
2023/07/06 08:26:23;;;;;;;8.23;2.30;;;31.30;92.60;;;;;;7287524;19;20232;-76
2023/07/06 08:28:50;;;;;;;9.75;2.50;;;29.10;93.30;;;;;;7288411;19;20205;-76
2023/07/06 08:31:18;;;;;;;10.80;2.00;;;27.90;96.90;;;;;;7286457;19;20687;-76
2023/07/06 08:33:46;;;;;;;9.90;2.45;;;28.40;97.50;;;;;;7301357;19;20185;-76
2023/07/06 08:36:14;;;;;;;7.32;1.92;;;31.40;94.00;;;;;;7307020;19;20193;-77
2023/07/06 08:38:43;;;;;;;9.05;2.40;;;31.40;92.90;;;;;;7283801;19;20184;-77
2023/07/06 08:41:39;;;;;;;9.90;2.22;;;29.80;93.80;;;;;;7283485;19;20193;-76
2023/07/06 08:44:08;;;;;;;8.80;2.00;;;28.50;94.40;;;;;;7180459;19;2005113;-76
2023/07/06 08:46:40;;;;;;;9.90;2.20;;;27.50;95.70;;;;;;7282378;19;20213;-75
2023/07/06 08:49:17;;;;;;;8.70;1.98;;;27.80;96.80;;;;;;7282037;19;20224;-76
2023/07/06 08:51:44;;;;;;;8.73;2.10;;;30.40;94.40;;;;;;7280474;19;20211;-75
2023/07/06 08:54:30;;;;;;;8.98;1.85;;;32.90;90.60;;;;;;7301148;19;20212;-76
2023/07/06 08:56:57;;;;;;;10.52;2.00;;;34.00;85.70;;;;;;7179910;19;2004539;-76
2023/07/06 08:59:37;;;;;;;9.60;2.20;;;34.10;83.60;;;;;;7280666;19;20233;-76
2023/07/06 09:02:13;;;;;;;8.88;2.03;;;32.90;86.80;;;;;;7280511;19;20205;-76
2023/07/06 09:04:39;;;;;;;6.20;2.17;;;32.10;90.00;;;;;;7282337;19;20184;-76
2023/07/06 09:07:05;;;;;;;10.23;1.90;;;33.30;86.10;;;;;;7281940;19;21173;-76
2023/07/06 09:09:34;;;;;;;11.20;2.30;;;33.90;82.50;;;;;;7281690;19;20201;-76
2023/07/06 09:12:01;;;;;;;6.82;1.77;;;34.20;82.10;;;;;;7283065;19;20193;-76
2023/07/06 09:14:28;;;;;;;10.25;2.03;;;34.70;80.40;;;;;;7282984;19;20192;-76
2023/07/06 09:16:56;;;;;;;7.43;1.98;;;33.10;81.20;;;;;;7281435;19;20226;-76
2023/07/06 09:19:24;;;;;;;12.50;2.55;;;32.60;84.30;;;;;;7280203;19;20176;-76
2023/07/06 09:21:54;;;;;;;8.25;1.63;;;33.20;81.70;;;;;;7281713;19;20342;-76
2023/07/06 09:24:27;;;;;;;8.23;2.10;;;33.80;79.60;;;;;;7280657;19;20614;-76
2023/07/06 09:26:57;;;;;;;8.15;2.08;;;33.40;78.50;;;;;;7280876;19;20189;-75
2023/07/06 09:29:32;;;;;;;7.47;2.00;;;31.50;81.00;;;;;;7280803;19;20678;-76
2023/07/06 09:32:34;;;;;;;8.40;1.90;;;33.10;83.90;;;;;;7279578;19;20200;-76
2023/07/06 09:35:13;;;;;;;8.93;1.83;;;34.40;75.50;;;;;;7177626;19;2004906;-77
2023/07/06 09:37:50;;;;;;;8.43;1.90;;;35.50;74.50;;;;;;7281354;19;20189;-76
2023/07/06 09:40:16;;;;;;;8.15;1.77;;;34.60;71.00;;;;;;7258456;19;20180;-76
2023/07/06 09:42:44;;;;;;;6.78;1.83;;;35.10;73.80;;;;;;7303638;19;20628;-76
2023/07/06 09:45:26;;;;;;;5.80;1.73;;;35.30;72.50;;;;;;7282004;19;20192;-76
2023/07/06 09:48:03;;;;;;;10.65;1.60;;;34.40;72.80;;;;;;7176621;19;2006256;-76
2023/07/06 09:50:37;;;;;;;8.52;1.83;;;33.80;74.50;;;;;;7281419;19;20253;-75
2023/07/06 09:53:11;;;;;;;6.38;1.67;;;33.00;74.80;;;;;;7281656;19;20207;-76
2023/07/06 09:55:37;;;;;;;6.05;1.60;;;31.90;77.50;;;;;;7281074;19;20192;-76
2023/07/06 09:58:07;;;;;;;8.32;1.90;;;31.60;77.50;;;;;;7280690;19;20206;-76
2023/07/06 10:00:39;;;;;;;6.82;1.70;;;32.80;76.00;;;;;;7280451;19;20188;-76
2023/07/06 10:03:35;;;;;;;7.25;1.83;;;33.30;75.20;;;;;;7280508;19;20185;-76
2023/07/06 10:06:07;;;;;;;8.88;1.75;;;33.10;73.40;;;;;;7178651;19;2004770;-76
2023/07/06 10:08:44;;;;;;;6.88;1.80;;;32.20;74.70;;;;;;7280529;19;20191;-76
2023/07/06 10:11:34;;;;;;;5.20;1.52;;;30.80;75.40;;;;;;7278843;19;20212;-76
2023/07/06 10:14:09;;;;;;;8.13;1.63;;;30.30;78.30;;;;;;7176825;19;2006211;-75
2023/07/06 10:16:50;;;;;;;7.43;1.60;;;30.20;81.10;;;;;;7280216;19;20205;-76
2023/07/06 10:19:31;;;;;;;4.70;1.35;;;31.90;74.40;;;;;;7258629;19;20380;-76
2023/07/06 10:22:14;;;;;;;6.93;1.83;;;32.30;73.90;;;;;;7278299;19;20200;-76
2023/07/06 10:24:57;;;;;;;8.60;2.00;;;33.40;76.50;;;;;;7280006;19;20193;-75
2023/07/06 10:27:29;;;;;;;8.02;1.70;;;32.40;72.90;;;;;;7177362;19;2006001;-75
2023/07/06 10:30:01;;;;;;;7.55;1.75;;;31.40;76.90;;;;;;7278837;19;20652;-75
2023/07/06 10:32:37;;;;;;;6.22;1.80;;;30.70;76.00;;;;;;7280281;19;20655;-75
2023/07/06 10:35:19;;;;;;;5.85;1.70;;;32.50;78.60;;;;;;7279050;19;20211;-75
2023/07/06 10:37:46;;;;;;;8.32;2.13;;;33.90;71.20;;;;;;7260427;19;20192;-75
2023/07/06 10:40:27;;;;;;;7.03;1.63;;;34.40;71.40;;;;;;7300643;19;20185;-75
2023/07/06 10:43:14;;;;;;;7.13;1.83;;;32.60;69.80;;;;;;7178097;19;2004598;-75
2023/07/06 10:45:43;;;;;;;6.38;1.35;;;33.90;74.90;;;;;;7280192;19;20209;-74
2023/07/06 10:48:14;;;;;;;7.30;1.88;;;35.10;67.10;;;;;;7279700;19;20185;-75
2023/07/06 10:51:15;;;;;;;7.13;1.42;;;33.10;68.00;;;;;;7278445;19;20253;-76
2023/07/06 10:53:47;;;;;;;7.32;1.60;;;32.20;71.50;;;;;;7176670;19;2004524;-75
2023/07/06 10:56:28;;;;;;;5.75;1.83;;;31.30;72.00;;;;;;7279055;19;20204;-76
2023/07/06 10:58:57;;;;;;;7.38;1.67;;;32.90;71.00;;;;;;7176236;19;2005081;-75
2023/07/06 11:01:45;;;;;;;6.47;1.70;;;33.80;68.50;;;;;;7277496;19;20308;-75
2023/07/06 11:04:41;;;;;;;4.78;1.33;;;34.70;65.20;;;;;;7277774;19;20185;-75
2023/07/06 11:07:09;;;;;;;7.10;1.60;;;36.00;66.30;;;;;;7176368;19;2004300;-76
2023/07/06 11:10:13;;;;;;;5.25;1.42;;;37.10;60.80;;;;;;7276417;19;20310;-75
2023/07/06 11:13:06;;;;;;;6.32;1.40;;;37.90;60.20;;;;;;7175973;19;2004978;-75
2023/07/06 11:15:48;;;;;;;6.82;1.70;;;39.30;57.80;;;;;;7175842;19;2004686;-76
2023/07/06 11:18:14;;;;;;;6.65;1.90;;;38.60;57.80;;;;;;7271175;19;20195;-75
2023/07/06 11:20:42;;;;;;;5.88;1.67;;;37.40;57.30;;;;;;7292272;19;20181;-76
2023/07/06 11:23:13;;;;;;;6.05;1.63;;;38.40;56.40;;;;;;7280314;19;20196;-76
2023/07/06 11:25:39;;;;;;;6.20;1.70;;;36.60;55.80;;;;;;7285816;19;20192;-75
2023/07/06 11:28:10;;;;;;;10.23;1.77;;;34.80;58.80;;;;;;7283423;19;20189;-75
2023/07/06 11:31:02;;;;;;;7.85;1.90;;;35.10;59.50;;;;;;7284350;19;20243;-75
2023/07/06 11:34:12;;;;;;;6.07;1.70;;;36.10;58.80;;;;;;7183288;19;2007399;-75
2023/07/06 11:36:52;;;;;;;8.68;1.95;;;35.90;59.00;;;;;;7181560;19;2004352;-75
2023/07/06 11:39:32;;;;;;;4.47;1.48;;;36.30;57.50;;;;;;7263409;19;20212;-76
2023/07/06 11:41:58;;;;;;;3.60;1.40;;;36.20;58.00;;;;;;7284743;19;20200;-76
2023/07/06 11:44:51;;;;;;;4.72;1.63;;;35.50;56.70;;;;;;7283393;19;20188;-75
2023/07/06 11:47:37;;;;;;;5.45;1.50;;;33.50;57.60;;;;;;7262649;19;20196;-75
2023/07/06 11:50:08;;;;;;;9.00;1.70;;;32.30;59.90;;;;;;7284540;19;20219;-77
2023/07/06 11:52:39;;;;;;;5.47;1.58;;;31.90;63.70;;;;;;7285016;19;20265;-77
2023/07/06 11:55:31;;;;;;;6.20;1.70;;;31.70;65.30;;;;;;7281616;19;20178;-76
2023/07/06 11:58:28;;;;;;;6.15;1.60;;;31.70;63.50;;;;;;7182585;19;2005006;-77
2023/07/06 12:01:00;;;;;;;5.07;1.55;;;31.90;64.00;;;;;;7182098;19;2004884;-76
2023/07/06 12:03:27;;;;;;;8.73;1.60;;;32.90;63.80;;;;;;7282377;19;20659;-76
2023/07/06 12:05:59;;;;;;;4.70;1.50;;;32.30;64.30;;;;;;7283498;19;20248;-76
2023/07/06 12:08:35;;;;;;;4.35;1.60;;;31.30;62.80;;;;;;7325264;19;20189;-76
2023/07/06 12:11:22;;;;;;;5.40;1.67;;;30.40;65.90;;;;;;7395615;19;20133;-76
2023/07/06 12:13:53;;;;;;;5.63;1.48;;;30.20;66.80;;;;;;7329821;19;20207;-78
2023/07/06 12:16:47;;;;;;;6.00;1.50;;;29.90;66.60;;;;;;7284127;19;20189;-77
2023/07/06 12:19:17;;;;;;;5.70;1.70;;;29.90;69.00;;;;;;7282664;19;20192;-77
2023/07/06 12:21:50;;;;;;;7.40;1.63;;;30.00;68.80;;;;;;7285244;19;20225;-77
2023/07/06 12:24:20;;;;;;;4.50;1.52;;;29.70;68.10;;;;;;7261825;19;20219;-77
2023/07/06 12:26:56;;;;;;;7.28;2.00;;;29.10;68.20;;;;;;7286197;19;20192;-77
2023/07/06 12:29:23;;;;;;;7.00;1.70;;;28.90;71.20;;;;;;7283269;19;20192;-77
2023/07/06 12:31:51;;;;;;;9.50;1.88;;;28.70;74.30;;;;;;7283093;19;20184;-77
2023/07/06 12:34:20;;;;;;;5.70;1.70;;;29.00;70.00;;;;;;7280278;19;20268;-77
2023/07/06 12:36:51;;;;;;;4.65;1.40;;;29.00;72.90;;;;;;7323192;19;20722;-77
2023/07/06 12:39:20;;;;;;;4.90;1.50;;;29.30;70.60;;;;;;7394800;19;20134;-77
2023/07/06 12:41:47;;;;;;;5.93;1.75;;;28.70;69.30;;;;;;7396184;19;20138;-76
2023/07/06 12:44:18;;;;;;;11.00;1.80;;;28.80;71.00;;;;;;7284314;19;20295;-76
2023/07/06 12:46:51;;;;;;;6.72;1.70;;;29.00;70.90;;;;;;7284769;19;20189;-76
2023/07/06 12:49:22;;;;;;;4.95;1.40;;;29.20;70.50;;;;;;7261059;19;20628;-76
2023/07/06 12:51:54;;;;;;;8.38;1.88;;;29.40;69.40;;;;;;7282913;19;20749;-77
2023/07/06 12:54:23;;;;;;;5.00;1.65;;;29.50;70.50;;;;;;7282878;19;20252;-76
2023/07/06 12:57:00;;;;;;;5.85;1.55;;;29.60;69.70;;;;;;7281328;19;20697;-77
2023/07/06 12:59:34;;;;;;;3.97;1.38;;;29.70;71.60;;;;;;7282577;19;20188;-77
2023/07/06 13:02:30;;;;;;;7.82;1.92;;;30.30;70.40;;;;;;7281761;19;20238;-77